KLKU Airport (Louisa County/Freeman Field) Information

FAA: LKU - ICAO: KLKU

KLKU Airport Location

State Virginia
County Louisa
City Louisa
KLKU Airport is 2 miles southeast of Louisa, VA.
Latitude 38-00-35.3690N
Longitude 077-58-12.4560W
Elevation 493ft

KLKU Airport METARs

METAR KLKU 181335Z AUTO 25005KT 10SM CLR M02/M08 A3009 RMK AO2 T10191084
Altimeter 30.09"
Temperature -1.9°C (28.6°F)
Wind 250° at 5KT
Clouds Skies are clear.
Visibility 10.0mi
Time observed: 2022-01-18T13:35:00Z

KLKU Airport Details

Status Operational
Activation June 1987
Ownership Public
Usage Public
Chart WASHINGTON
ATC on-site No
Beacon schedule sunset-sunrise
Beacon color clear green

KLKU Airport Contacts

Owner IND DEV AUTH OF LOUISA CO.
Owner address PO BOX 27, LOUISA, VA 23093
Owner phone 540-967-0050
Manager JAMES C. HARRISON JR.
Manager address 186367 BLUE RIDGE PKY, HILLSVILLE, VA 24343
Manager phone 540-398-3284

KLKU Airport (Louisa County/Freeman Field) Radio Frequencies

KLKU (Airport) Radio Frequencies

UNICOM 122.975
Common traffic advisory frequency (CTAF) 122.975